Weather at Lakatamia Airfield

Public forecast

Using degrees Celsius for public forecast. Weather courtesy of forecast.io.

Closest aviation weather report (METAR) to Lakatamia Airfield

Closest report is Nicosia (Lefkoşa) Ercan International Airport, 9.5 nm (17.6 km) ENE.

2024/07/20 15:50 (retrieved 21 minutes ago)

LCEN 201550Z 15012KT 9999 FEW020 36/20 Q1001 NOSIG RMK RWY11R 15012KT RWY29R 15013KT RWY11L 17013KT

Closest aviation forecast (TAF) to Lakatamia Airfield

Closest forecast is Nicosia (Lefkoşa) Ercan International Airport, 9.5 nm (17.6 km) ENE.

2024/07/20 12:00 (retrieved 4 hours ago)

TAF LCEN 201040Z 2012/2112 03017KT 9999 FEW020 BECMG 2014/2016 15018KT BECMG 2017/2020 29015KT